Creamridge, New Jersey
Current Conditions -  °F | °C
As of 1:18 AM on Thursday 23 Oct 2014 (Local Time) from KWRI Reporting Station
Light Rain Light Rain  
Wind Chill: 50°   Ceiling: 900
Heat Index: 50°   Visibility: 10mi
Dew Point: 50°   Wind: 18mph
Humidity: 100%   Direction: 330°NNW
Pressure: 29.7"   Gusts: 28mph
Location:  40.1405°N, 74.4965°W
Report Text: KWRI 230518Z AUTO 33016G24KT 10SM -RA BKN009 OVC016 10/10 A2970 RMK AO2 CIG 008V010
Loading
Personal Weather Stations






























Interactive Weather Map
Tropical Storm Tracking
New forecast layout! Learn more

10-Day Weather Forecast

Advertisements
Track Severe Weather on mobile